Time;durP1;ratioP1;P1;durP2;ratioP2;P2;SDS_P1;SDS_P2;PMS_P1;PMS_P2;Temp;Humidity;BMP_temperature;BMP_pressure;BME280_temperature;BME280_humidity;BME280_pressure;Samples;Min_cycle;Max_cycle;Signal;HPM_P1;HPM_P2
2020/12/14 00:02:19;;;;;;;19.15;11.07;;;;;;;4.61;73.95;93337.19;5011645;28;20404;-71
2020/12/14 00:04:45;;;;;;;28.38;12.57;;;;;;;4.50;74.59;93344.50;5011935;28;20420;-71
2020/12/14 00:07:10;;;;;;;27.63;11.65;;;;;;;4.51;74.71;93340.75;5010577;28;20024;-71
2020/12/14 00:09:36;;;;;;;23.40;11.25;;;;;;;4.46;75.25;93337.41;5010650;28;20033;-71
2020/12/14 00:12:02;;;;;;;20.20;10.88;;;;;;;4.41;75.34;93346.19;5011967;28;20038;-71
2020/12/14 00:14:28;;;;;;;25.08;12.00;;;;;;;4.23;75.58;93342.50;5010235;28;20504;-71
2020/12/14 00:16:54;;;;;;;29.45;13.52;;;;;;;4.17;76.25;93351.53;5011875;28;20030;-71
2020/12/14 00:19:20;;;;;;;25.27;11.77;;;;;;;4.19;76.10;93357.31;5011346;28;20026;-70
2020/12/14 00:21:46;;;;;;;26.23;12.07;;;;;;;4.06;76.46;93361.47;5011486;28;20105;-71
2020/12/14 00:24:12;;;;;;;20.88;11.85;;;;;;;4.12;76.47;93368.22;5010352;28;20480;-71
2020/12/14 00:26:37;;;;;;;22.58;12.25;;;;;;;4.07;76.60;93368.31;5011285;28;20034;-71
2020/12/14 00:29:03;;;;;;;22.80;12.77;;;;;;;4.09;76.32;93366.19;5011655;28;20022;-71
2020/12/14 00:31:29;;;;;;;23.67;12.32;;;;;;;4.09;76.58;93358.25;5011165;28;20519;-71
2020/12/14 00:33:54;;;;;;;24.80;11.65;;;;;;;4.13;76.42;93355.81;5011471;28;20025;-70
2020/12/14 00:36:20;;;;;;;19.25;11.65;;;;;;;4.19;76.09;93365.22;5010080;28;20081;-71
2020/12/14 00:38:46;;;;;;;21.27;11.98;;;;;;;4.15;75.70;93353.69;5011038;28;20026;-71
2020/12/14 00:41:17;;;;;;;24.75;12.68;;;;;;;4.21;75.87;93371.81;5009874;28;20017;-71
2020/12/14 00:43:42;;;;;;;20.83;11.23;;;;;;;4.12;76.06;93370.88;5010857;28;20029;-71
2020/12/14 00:46:12;;;;;;;21.52;12.07;;;;;;;4.06;76.29;93377.28;5009882;28;20036;-71
2020/12/14 00:48:38;;;;;;;22.00;11.07;;;;;;;3.96;76.88;93382.69;5010824;28;20030;-71
2020/12/14 00:51:03;;;;;;;24.52;12.23;;;;;;;3.89;76.84;93387.50;5009919;28;20079;-71
2020/12/14 00:53:29;;;;;;;26.42;12.77;;;;;;;3.90;77.19;93389.09;5009734;28;20065;-71
2020/12/14 00:55:54;;;;;;;22.13;11.70;;;;;;;3.88;77.04;93372.75;5010823;28;20429;-71
2020/12/14 00:58:20;;;;;;;20.63;11.13;;;;;;;3.84;77.10;93384.94;5010992;28;20034;-71
2020/12/14 01:00:45;;;;;;;25.20;11.25;;;;;;;3.77;77.41;93386.06;5009487;28;20128;-71
2020/12/14 01:03:11;;;;;;;19.35;11.23;;;;;;;3.70;77.62;93395.38;5009881;28;20050;-71
2020/12/14 01:05:36;;;;;;;19.63;11.32;;;;;;;3.71;77.54;93395.09;5010665;28;20425;-70
2020/12/14 01:08:02;;;;;;;24.05;11.07;;;;;;;3.75;77.48;93398.75;5011099;28;20029;-71
2020/12/14 01:10:27;;;;;;;21.60;11.07;;;;;;;3.73;77.38;93403.50;5010990;28;20033;-71
2020/12/14 01:12:53;;;;;;;22.95;11.40;;;;;;;3.71;77.58;93407.50;5010548;28;20069;-71
2020/12/14 01:15:18;;;;;;;21.48;11.63;;;;;;;3.67;77.77;93406.50;5011029;28;20034;-71
2020/12/14 01:17:44;;;;;;;22.23;11.65;;;;;;;3.72;77.74;93409.84;5010571;28;20029;-71
2020/12/14 01:20:13;;;;;;;24.08;12.00;;;;;;;3.67;77.42;93409.13;5010834;28;20108;-71
2020/12/14 01:22:39;;;;;;;24.63;12.20;;;;;;;3.66;77.45;93405.69;5010696;28;20022;-71
2020/12/14 01:25:04;;;;;;;25.70;12.02;;;;;;;3.69;77.38;93410.41;5010526;28;20041;-71
2020/12/14 01:27:30;;;;;;;21.80;11.05;;;;;;;3.72;77.25;93420.38;5010788;28;20037;-71
2020/12/14 01:29:55;;;;;;;18.92;10.30;;;;;;;3.71;77.14;93421.47;5010435;28;20030;-71
2020/12/14 01:32:21;;;;;;;19.95;10.25;;;;;;;3.72;77.11;93430.16;5009403;28;20022;-71
2020/12/14 01:34:46;;;;;;;22.75;10.38;;;;;;;3.76;76.91;93431.16;5010386;28;20026;-71
2020/12/14 01:37:11;;;;;;;17.38;9.82;;;;;;;3.82;76.83;93430.81;5010493;28;20026;-71
2020/12/14 01:39:37;;;;;;;20.13;10.70;;;;;;;3.74;77.02;93422.75;5010730;28;20026;-71
2020/12/14 01:42:02;;;;;;;22.58;10.77;;;;;;;3.68;76.96;93429.91;5012314;28;20525;-71
2020/12/14 01:44:28;;;;;;;17.42;10.10;;;;;;;3.69;77.42;93423.59;5014531;28;20473;-71
2020/12/14 01:46:53;;;;;;;21.73;10.93;;;;;;;3.78;76.57;93414.00;5012980;28;20025;-71
2020/12/14 01:49:19;;;;;;;18.38;9.70;;;;;;;3.77;76.41;93425.63;5013020;28;20120;-71
2020/12/14 01:51:45;;;;;;;23.50;10.25;;;;;;;3.73;76.39;93421.97;5014381;28;20505;-71
2020/12/14 01:54:26;;;;;;;20.95;10.57;;;;;;;3.75;76.55;93419.84;5012714;28;20017;-71
2020/12/14 01:56:52;;;;;;;19.67;10.50;;;;;;;3.65;76.85;93425.22;5014283;28;20030;-71
2020/12/14 01:59:17;;;;;;;25.05;11.40;;;;;;;3.59;77.01;93423.69;5013590;28;20041;-71
2020/12/14 02:01:42;;;;;;;17.92;9.55;;;;;;;3.70;77.00;93427.00;5014071;28;20523;-71
2020/12/14 02:04:08;;;;;;;22.05;9.57;;;;;;;3.70;76.91;93427.78;5013902;28;20029;-70
2020/12/14 02:06:33;;;;;;;23.52;10.70;;;;;;;3.70;76.56;93427.78;5014108;28;20048;-71
2020/12/14 02:08:59;;;;;;;19.38;10.45;;;;;;;3.75;76.65;93427.75;5013853;28;20021;-71
2020/12/14 02:11:24;;;;;;;19.27;10.20;;;;;;;3.75;76.51;93433.00;5013912;28;20025;-71
2020/12/14 02:13:50;;;;;;;20.58;9.43;;;;;;;3.76;76.21;93431.16;5013948;28;20026;-71
2020/12/14 02:16:15;;;;;;;18.33;9.45;;;;;;;3.65;76.56;93433.13;5013595;28;20405;-71
2020/12/14 02:18:41;;;;;;;19.75;10.15;;;;;;;3.62;76.79;93431.03;5013989;28;20041;-71
2020/12/14 02:21:06;;;;;;;18.92;10.55;;;;;;;3.47;77.14;93433.84;5013579;28;20025;-71
2020/12/14 02:23:32;;;;;;;19.60;10.55;;;;;;;3.43;77.58;93433.59;5013531;28;20661;-71
2020/12/14 02:25:57;;;;;;;17.25;9.43;;;;;;;3.39;77.86;93436.00;5012542;28;20030;-71
2020/12/14 02:28:23;;;;;;;20.45;10.27;;;;;;;3.37;77.52;93427.59;5013292;28;20030;-70
2020/12/14 02:30:48;;;;;;;23.05;10.40;;;;;;;3.41;77.65;93431.25;5013568;28;20026;-71
2020/12/14 02:33:14;;;;;;;19.80;10.48;;;;;;;3.48;77.56;93430.13;5011929;28;20030;-71
2020/12/14 02:35:39;;;;;;;20.30;9.98;;;;;;;3.48;77.22;93430.94;5013637;28;20018;-71
2020/12/14 02:38:06;;;;;;;21.83;10.77;;;;;;;3.45;77.39;93426.22;5012323;28;20120;-71
2020/12/14 02:40:32;;;;;;;20.65;10.82;;;;;;;3.42;77.42;93430.19;5013167;28;20026;-71
2020/12/14 02:42:58;;;;;;;24.25;9.73;;;;;;;3.37;77.59;93432.84;5013358;28;20068;-71
2020/12/14 02:45:23;;;;;;;18.85;9.93;;;;;;;3.36;77.47;93431.31;5012830;28;20030;-71
2020/12/14 02:47:49;;;;;;;21.50;10.60;;;;;;;3.36;77.50;93436.56;5011993;28;20113;-71
2020/12/14 02:50:14;;;;;;;18.55;9.57;;;;;;;3.36;77.40;93422.63;5013300;28;20087;-71
2020/12/14 02:52:40;;;;;;;20.38;9.85;;;;;;;3.37;77.52;93429.44;5013381;28;20571;-71
2020/12/14 02:55:05;;;;;;;19.38;10.15;;;;;;;3.33;77.46;93434.47;5011782;28;20033;-71
2020/12/14 02:57:30;;;;;;;17.77;10.20;;;;;;;3.31;77.88;93441.09;5011914;28;20540;-71
2020/12/14 02:59:56;;;;;;;18.73;10.18;;;;;;;3.31;77.58;93443.72;5012724;28;20060;-71
2020/12/14 03:02:21;;;;;;;18.45;10.15;;;;;;;3.25;77.58;93432.44;5012936;28;20037;-71
2020/12/14 03:04:47;;;;;;;17.38;9.32;;;;;;;3.25;77.48;93432.44;5012655;28;20037;-71
2020/12/14 03:07:12;;;;;;;16.08;9.35;;;;;;;3.22;77.47;93436.44;5013107;28;20401;-71
2020/12/14 03:09:38;;;;;;;17.42;9.00;;;;;;;3.26;77.58;93439.31;5011506;28;20046;-71
2020/12/14 03:12:03;;;;;;;18.73;9.90;;;;;;;3.27;77.37;93430.31;5011238;28;20026;-71
2020/12/14 03:14:29;;;;;;;18.88;9.10;;;;;;;3.28;77.56;93441.63;5012700;28;20018;-71
2020/12/14 03:16:56;;;;;;;22.13;9.85;;;;;;;3.33;77.25;93433.69;5011094;28;20022;-71
2020/12/14 03:19:22;;;;;;;19.17;9.27;;;;;;;3.45;77.51;93433.34;5012657;28;20112;-71
2020/12/14 03:21:47;;;;;;;17.85;8.85;;;;;;;3.45;76.36;93436.75;5011096;28;20077;-71
2020/12/14 03:24:13;;;;;;;17.92;9.07;;;;;;;3.47;76.78;93439.09;5012585;28;20053;-71
2020/12/14 03:26:39;;;;;;;20.88;9.02;;;;;;;3.41;76.89;93435.72;5010926;28;20032;-71
2020/12/14 03:29:05;;;;;;;20.35;10.45;;;;;;;3.41;76.85;93420.69;5012307;28;20489;-71
2020/12/14 03:31:31;;;;;;;17.75;9.52;;;;;;;3.34;77.09;93424.75;5012457;28;20060;-70
2020/12/14 03:33:57;;;;;;;20.25;10.35;;;;;;;3.33;77.08;93431.84;5012116;28;20104;-71
2020/12/14 03:36:23;;;;;;;18.75;10.07;;;;;;;3.32;77.21;93432.94;5010774;28;20022;-71
2020/12/14 03:38:53;;;;;;;15.52;8.98;;;;;;;3.30;77.55;93426.38;5012075;28;20034;-71
2020/12/14 03:41:20;;;;;;;18.27;10.10;;;;;;;3.34;77.51;93435.28;5011874;28;20050;-71
2020/12/14 03:43:45;;;;;;;19.05;9.85;;;;;;;3.33;77.80;93423.94;5010787;28;20026;-71
2020/12/14 03:46:22;;;;;;;18.52;9.38;;;;;;;3.32;77.49;93422.38;5011952;28;20121;-71
2020/12/14 03:48:48;;;;;;;18.33;9.05;;;;;;;3.32;77.35;93432.94;5012085;28;20100;-71
2020/12/14 03:51:14;;;;;;;20.55;9.52;;;;;;;3.33;77.33;93423.16;5012090;28;20064;-71
2020/12/14 03:53:40;;;;;;;19.48;10.27;;;;;;;3.30;77.72;93434.28;5011854;28;20058;-71
2020/12/14 03:56:05;;;;;;;12.57;7.82;;;;;;;3.21;77.83;93439.34;5012066;28;20069;-71
2020/12/14 03:58:32;;;;;;;15.43;8.48;;;;;;;3.22;78.32;93446.19;5010324;28;20033;-71
2020/12/14 04:00:57;;;;;;;19.63;8.75;;;;;;;3.25;78.17;93442.97;5011780;28;20029;-71
2020/12/14 04:03:24;;;;;;;20.10;9.63;;;;;;;3.24;78.05;93451.97;5011210;28;20108;-71
2020/12/14 04:05:50;;;;;;;17.95;8.32;;;;;;;3.25;77.94;93452.75;5010259;28;20034;-71
2020/12/14 04:08:16;;;;;;;17.10;9.05;;;;;;;3.23;77.98;93455.66;5011785;28;20040;-71
2020/12/14 04:10:41;;;;;;;19.10;8.63;;;;;;;3.20;77.80;93461.47;5010374;28;20477;-71
2020/12/14 04:13:07;;;;;;;19.90;10.13;;;;;;;3.17;77.71;93452.25;5011454;28;20033;-71
2020/12/14 04:15:32;;;;;;;19.63;9.73;;;;;;;3.22;78.12;93457.50;5010143;28;20041;-71
2020/12/14 04:17:58;;;;;;;19.48;8.73;;;;;;;3.27;77.78;93464.56;5011382;28;20030;-71
2020/12/14 04:20:23;;;;;;;16.95;9.07;;;;;;;3.28;77.53;93462.72;5011358;28;20040;-71
2020/12/14 04:22:49;;;;;;;16.23;8.93;;;;;;;3.29;77.28;93465.06;5011536;28;20500;-71
2020/12/14 04:25:18;;;;;;;14.38;8.30;;;;;;;3.33;77.08;93471.34;5011181;28;20041;-71
2020/12/14 04:27:44;;;;;;;16.13;8.52;;;;;;;3.30;76.64;93468.50;5003747;28;20037;-71
2020/12/14 04:30:11;;;;;;;15.90;8.85;;;;;;;3.24;77.31;93467.75;5011191;28;20036;-71
2020/12/14 04:32:36;;;;;;;16.10;8.75;;;;;;;3.20;77.33;93462.25;5011143;28;20048;-71
2020/12/14 04:35:03;;;;;;;17.70;8.25;;;;;;;3.21;77.16;93471.72;5011065;28;20026;-71
2020/12/14 04:37:28;;;;;;;16.30;8.65;;;;;;;3.17;77.43;93472.56;5009641;28;20499;-70
2020/12/14 04:39:53;;;;;;;16.40;8.93;;;;;;;3.11;77.24;93481.56;5009820;28;20077;-71
2020/12/14 04:42:19;;;;;;;16.02;8.43;;;;;;;3.12;77.41;93483.13;5009596;28;20127;-71
2020/12/14 04:44:45;;;;;;;21.73;8.25;;;;;;;3.09;77.30;93487.09;5009428;28;20478;-71
2020/12/14 04:47:12;;;;;;;14.65;7.28;;;;;;;3.03;77.17;93487.41;5010942;28;20040;-71
2020/12/14 04:49:41;;;;;;;13.23;7.68;;;;;;;3.08;77.61;93492.66;5009624;28;20021;-71
2020/12/14 04:52:07;;;;;;;16.23;8.27;;;;;;;3.07;77.43;93488.44;5009665;28;20029;-71
2020/12/14 04:54:33;;;;;;;14.23;7.25;;;;;;;3.06;77.14;93497.41;5010831;28;20022;-70
2020/12/14 04:57:08;;;;;;;14.80;7.68;;;;;;;3.04;76.98;93502.16;5010936;28;20057;-71
2020/12/14 04:59:34;;;;;;;13.93;7.20;;;;;;;3.08;77.38;93500.56;5005756;28;20030;-70
2020/12/14 05:02:05;;;;;;;20.17;7.72;;;;;;;3.00;76.94;93505.31;5010745;28;20036;-71
2020/12/14 05:04:30;;;;;;;13.52;7.43;;;;;;;3.01;76.79;93516.63;5009290;28;20042;-71
2020/12/14 05:06:56;;;;;;;13.23;7.15;;;;;;;3.08;77.35;93524.25;5009311;28;20076;-71
2020/12/14 05:09:22;;;;;;;14.55;7.65;;;;;;;3.12;76.72;93520.00;5009503;28;20038;-71
2020/12/14 05:11:47;;;;;;;13.65;7.18;;;;;;;3.16;76.55;93518.41;5010843;28;20030;-71
2020/12/14 05:14:15;;;;;;;14.07;6.95;;;;;;;3.19;75.95;93528.38;5010475;28;20367;-71
2020/12/14 05:16:40;;;;;;;14.35;6.55;;;;;;;3.20;75.87;93524.69;5009849;28;20030;-71
2020/12/14 05:19:26;;;;;;;14.13;7.03;;;;;;;3.22;75.96;93533.88;5010490;28;20030;-70
2020/12/14 05:21:55;;;;;;;13.55;7.03;;;;;;;3.28;75.84;93533.81;5009168;28;20460;-71
2020/12/14 05:24:29;;;;;;;15.45;7.15;;;;;;;3.28;75.39;93542.53;5010495;28;20034;-70
2020/12/14 05:26:55;;;;;;;12.30;6.95;;;;;;;3.28;75.44;93539.09;5010311;28;20018;-71
2020/12/14 05:29:29;;;;;;;14.77;6.75;;;;;;;3.29;75.56;93538.03;5010470;28;20022;-71
2020/12/14 05:32:10;;;;;;;19.55;6.63;;;;;;;3.25;75.34;93543.06;5010874;28;20033;-70
2020/12/14 05:34:38;;;;;;;13.15;7.13;;;;;;;3.33;75.09;93547.75;5010850;28;20037;-71
2020/12/14 05:37:09;;;;;;;15.90;7.63;;;;;;;3.34;75.12;93556.47;5010327;28;20056;-71
2020/12/14 05:39:35;;;;;;;15.38;7.40;;;;;;;3.33;75.12;93550.38;5010387;28;20033;-70
2020/12/14 05:42:16;;;;;;;16.10;7.55;;;;;;;3.38;74.92;93555.63;5010247;28;20053;-71
2020/12/14 05:44:44;;;;;;;14.27;7.38;;;;;;;3.46;74.82;93564.00;5008878;28;20413;-71
2020/12/14 05:47:29;;;;;;;15.40;7.88;;;;;;;3.49;74.35;93558.19;5010241;28;20029;-71
2020/12/14 05:49:57;;;;;;;13.38;6.90;;;;;;;3.49;74.48;93558.97;5009157;28;20061;-71
2020/12/14 05:52:26;;;;;;;12.38;6.40;;;;;;;3.47;74.78;93558.47;5010226;28;20457;-70
2020/12/14 05:54:54;;;;;;;12.88;6.95;;;;;;;3.52;74.76;93568.16;5009070;28;20536;-71
2020/12/14 05:57:37;;;;;;;14.77;8.05;;;;;;;3.51;74.16;93562.13;5009909;28;20026;-70
2020/12/14 06:00:11;;;;;;;14.07;6.85;;;;;;;3.58;73.95;93564.44;5001657;28;20066;-71
2020/12/14 06:02:37;;;;;;;13.57;6.88;;;;;;;3.64;73.90;93568.59;5010101;28;20029;-71
2020/12/14 06:05:07;;;;;;;13.65;6.63;;;;;;;3.71;73.75;93573.56;5008766;28;20053;-71
2020/12/14 06:07:34;;;;;;;16.85;8.02;;;;;;;3.73;73.91;93580.13;5009890;28;20053;-71
2020/12/14 06:10:09;;;;;;;13.32;6.90;;;;;;;3.82;73.23;93578.44;4999434;28;20030;-71
2020/12/14 06:12:37;;;;;;;16.30;7.30;;;;;;;3.93;73.30;93588.91;5009861;28;20444;-71
2020/12/14 06:15:14;;;;;;;14.43;7.93;;;;;;;4.00;73.14;93594.66;5010189;28;20022;-71
2020/12/14 06:17:41;;;;;;;14.75;7.93;;;;;;;4.03;72.82;93594.13;5008462;28;20378;-71
2020/12/14 06:20:15;;;;;;;15.40;8.00;;;;;;;3.96;72.77;93593.63;5010093;28;20037;-71
2020/12/14 06:22:47;;;;;;;15.85;8.88;;;;;;;3.96;72.92;93594.41;5009740;28;20026;-71
2020/12/14 06:25:14;;;;;;;17.17;9.05;;;;;;;3.98;73.18;93594.16;5009934;28;20026;-71
2020/12/14 06:27:40;;;;;;;16.17;9.50;;;;;;;3.99;72.76;93595.72;5012180;28;20048;-71
2020/12/14 06:30:32;;;;;;;13.20;7.82;;;;;;;3.98;72.89;93605.47;5013613;28;20493;-71
2020/12/14 06:33:02;;;;;;;13.35;6.40;;;;;;;4.01;71.66;93601.53;5007589;28;20046;-71
2020/12/14 06:35:41;;;;;;;39.78;16.73;;;;;;;4.06;72.89;93612.00;5013417;28;20029;-71
2020/12/14 06:38:07;;;;;;;32.83;13.77;;;;;;;4.02;72.37;93617.03;5012147;28;20504;-71
2020/12/14 06:40:56;;;;;;;29.80;12.00;;;;;;;3.96;72.58;93620.78;5013314;28;20029;-71
2020/12/14 06:43:33;;;;;;;22.73;10.20;;;;;;;3.93;72.59;93620.53;5006423;28;20073;-71
2020/12/14 06:46:01;;;;;;;22.30;10.07;;;;;;;3.94;72.55;93622.13;5013227;28;20104;-71
2020/12/14 06:48:39;;;;;;;25.48;12.13;;;;;;;3.98;72.43;93626.56;5013209;28;20038;-71
2020/12/14 06:51:06;;;;;;;33.72;13.48;;;;;;;3.99;72.37;93624.75;5011823;28;20028;-71
2020/12/14 06:53:47;;;;;;;44.55;17.77;;;;;;;4.00;72.75;93639.50;5012851;28;20030;-71
2020/12/14 06:56:14;;;;;;;34.83;14.88;;;;;;;3.98;72.57;93631.84;5011780;28;20029;-71
2020/12/14 06:58:42;;;;;;;26.02;12.50;;;;;;;3.99;72.56;93640.56;5012968;28;20034;-71
2020/12/14 07:01:40;;;;;;;21.08;9.93;;;;;;;3.88;72.55;93646.97;5012834;28;20378;-71
2020/12/14 07:04:26;;;;;;;17.15;8.95;;;;;;;3.78;73.01;93643.34;5012223;28;20044;-71
2020/12/14 07:06:52;;;;;;;14.80;7.10;;;;;;;3.73;72.77;93651.31;5012616;28;20041;-71
2020/12/14 07:09:37;;;;;;;21.02;7.75;;;;;;;3.62;73.34;93652.41;5012832;28;20409;-71
2020/12/14 07:12:08;;;;;;;17.73;8.55;;;;;;;3.46;73.90;93664.13;5011152;28;20057;-71
2020/12/14 07:14:35;;;;;;;19.92;10.05;;;;;;;3.38;74.32;93668.91;5011283;28;20034;-71
2020/12/14 07:17:16;;;;;;;24.27;10.82;;;;;;;3.44;74.44;93667.06;5012553;28;20030;-71
2020/12/14 07:19:45;;;;;;;18.67;9.60;;;;;;;3.38;74.64;93662.88;5012518;28;20026;-71
2020/12/14 07:22:14;;;;;;;19.83;9.95;;;;;;;3.37;75.10;93662.06;5012373;28;20029;-71
2020/12/14 07:24:41;;;;;;;24.45;11.57;;;;;;;3.39;74.98;93664.44;5012498;28;20517;-71
2020/12/14 07:27:09;;;;;;;19.73;11.05;;;;;;;3.34;75.35;93659.22;5012310;28;20397;-71
2020/12/14 07:29:35;;;;;;;13.77;8.40;;;;;;;3.24;75.62;93673.22;5012704;28;20033;-71
2020/12/14 07:32:04;;;;;;;20.05;9.63;;;;;;;3.22;75.80;93670.84;5011125;28;20501;-71
2020/12/14 07:34:29;;;;;;;21.83;10.13;;;;;;;3.20;76.47;93672.19;4999795;28;20032;-71
2020/12/14 07:36:55;;;;;;;17.52;9.00;;;;;;;3.15;76.42;93682.72;5012025;28;20450;-71
2020/12/14 07:39:20;;;;;;;19.38;10.18;;;;;;;3.16;77.11;93679.81;5009916;28;20049;-71
2020/12/14 07:41:48;;;;;;;18.50;9.63;;;;;;;3.22;77.40;93688.50;5011114;28;20161;-71
2020/12/14 07:44:14;;;;;;;15.57;9.13;;;;;;;3.12;77.17;93681.44;5010513;28;20038;-71
2020/12/14 07:46:40;;;;;;;17.25;7.95;;;;;;;3.07;77.10;93688.56;5012279;28;20408;-71
2020/12/14 07:49:09;;;;;;;20.00;9.68;;;;;;;3.10;77.87;93682.75;5011827;28;20029;-71
2020/12/14 07:51:43;;;;;;;16.08;9.77;;;;;;;3.17;77.29;93688.50;5010850;28;20026;-71
2020/12/14 07:54:12;;;;;;;16.67;8.82;;;;;;;3.11;77.85;93702.75;5010285;28;20038;-71
2020/12/14 07:56:52;;;;;;;15.60;8.57;;;;;;;3.03;77.03;93703.31;5010631;28;20030;-71
2020/12/14 07:59:28;;;;;;;19.35;8.95;;;;;;;3.12;77.81;93691.19;5011691;28;20026;-71
2020/12/14 08:01:55;;;;;;;14.85;7.38;;;;;;;3.09;76.78;93696.97;5010538;28;20030;-71
2020/12/14 08:04:26;;;;;;;14.65;8.15;;;;;;;3.08;77.04;93698.81;5011370;28;20034;-71
2020/12/14 08:06:52;;;;;;;14.48;6.38;;;;;;;2.97;77.78;93699.91;5011740;28;20083;-72
2020/12/14 08:09:20;;;;;;;11.25;6.28;;;;;;;2.91;77.27;93706.25;5011596;28;20030;-71
2020/12/14 08:11:47;;;;;;;13.05;6.28;;;;;;;3.02;77.44;93705.16;5010416;28;20034;-71
2020/12/14 08:14:16;;;;;;;11.25;6.25;;;;;;;2.92;77.19;93713.09;5011517;28;20049;-71
2020/12/14 08:16:44;;;;;;;10.65;5.43;;;;;;;2.92;77.09;93706.00;5011719;28;20405;-71
2020/12/14 08:19:21;;;;;;;9.35;5.47;;;;;;;2.92;76.29;93707.84;5011208;28;20026;-71
2020/12/14 08:22:00;;;;;;;9.07;5.40;;;;;;;2.98;77.86;93718.06;5010082;28;20111;-71
2020/12/14 08:24:26;;;;;;;10.05;5.65;;;;;;;2.96;76.78;93711.50;5010976;28;20034;-71
2020/12/14 08:26:58;;;;;;;11.40;5.50;;;;;;;3.06;77.57;93718.59;5011589;28;20053;-72
2020/12/14 08:29:27;;;;;;;17.13;5.78;;;;;;;3.10;77.34;93717.78;5009828;28;20041;-70
2020/12/14 08:31:55;;;;;;;15.27;6.72;;;;;;;3.15;77.74;93716.97;5011351;28;20402;-71
2020/12/14 08:34:32;;;;;;;14.50;6.43;;;;;;;3.23;77.32;93729.56;5011239;28;20037;-72
2020/12/14 08:36:59;;;;;;;11.65;6.75;;;;;;;3.19;77.39;93718.00;5000217;28;20030;-72
2020/12/14 08:39:25;;;;;;;11.73;5.95;;;;;;;3.18;76.95;93727.75;5009883;28;20030;-72
2020/12/14 08:42:03;;;;;;;10.18;5.28;;;;;;;3.17;76.43;93720.13;5010798;28;20049;-72
2020/12/14 08:44:29;;;;;;;10.48;6.28;;;;;;;3.20;77.98;93728.28;5009818;28;20040;-72
2020/12/14 08:46:55;;;;;;;11.38;4.97;;;;;;;3.25;77.27;93727.47;5009367;28;20033;-72
2020/12/14 08:49:20;;;;;;;8.60;5.15;;;;;;;3.32;77.37;93720.06;5009625;28;20461;-72
2020/12/14 08:51:48;;;;;;;11.27;5.50;;;;;;;3.22;76.33;93722.75;5010967;28;20061;-72
2020/12/14 08:54:19;;;;;;;10.00;5.25;;;;;;;3.12;76.82;93733.31;5011022;28;20438;-72
2020/12/14 08:56:45;;;;;;;7.15;4.18;;;;;;;3.06;75.75;93718.59;5010670;28;20038;-72
2020/12/14 08:59:17;;;;;;;20.85;5.20;;;;;;;2.84;77.08;93714.44;5010951;28;20037;-72
2020/12/14 09:01:58;;;;;;;9.77;5.57;;;;;;;2.86;77.25;93719.44;5009508;28;20068;-72
2020/12/14 09:04:29;;;;;;;10.85;6.13;;;;;;;2.83;77.09;93715.50;5010820;28;20516;-72
2020/12/14 09:06:54;;;;;;;11.50;5.35;;;;;;;2.89;77.56;93724.97;5010470;28;20049;-72
2020/12/14 09:09:32;;;;;;;10.07;5.15;;;;;;;2.97;77.50;93711.25;5010596;28;20080;-72
2020/12/14 09:11:58;;;;;;;14.05;6.28;;;;;;;3.01;77.23;93711.47;5010452;28;20042;-72
2020/12/14 09:14:31;;;;;;;8.98;5.10;;;;;;;2.99;76.61;93716.22;5010389;28;20037;-72
2020/12/14 09:17:00;;;;;;;9.60;4.80;;;;;;;2.99;77.35;93719.66;5010412;28;20541;-72
2020/12/14 09:19:31;;;;;;;10.30;5.38;;;;;;;3.06;77.28;93718.59;5010475;28;20030;-72
2020/12/14 09:21:57;;;;;;;11.15;5.05;;;;;;;3.12;77.99;93720.16;5010336;28;20040;-72
2020/12/14 09:24:28;;;;;;;9.07;4.95;;;;;;;3.18;77.70;93711.94;5009369;28;20025;-72
2020/12/14 09:27:02;;;;;;;11.35;6.05;;;;;;;3.08;76.70;93716.47;5010161;28;20014;-72
2020/12/14 09:29:28;;;;;;;8.10;5.05;;;;;;;3.07;76.38;93709.63;5010709;28;20037;-72
2020/12/14 09:31:55;;;;;;;8.10;4.72;;;;;;;3.03;76.80;93714.63;5010037;28;20018;-72
2020/12/14 09:34:22;;;;;;;8.70;4.90;;;;;;;3.09;77.15;93710.91;5010423;28;20030;-72
2020/12/14 09:36:52;;;;;;;10.27;5.22;;;;;;;3.19;77.49;93712.72;5010264;28;20026;-72
2020/12/14 09:39:19;;;;;;;7.40;4.85;;;;;;;3.24;77.02;93709.28;5009985;28;20112;-72
2020/12/14 09:41:44;;;;;;;8.70;4.40;;;;;;;3.21;75.61;93715.88;5008593;28;20038;-72
2020/12/14 09:44:10;;;;;;;8.20;4.97;;;;;;;3.27;75.95;93706.13;5010216;28;20026;-72
2020/12/14 09:46:35;;;;;;;9.05;4.68;;;;;;;3.30;76.99;93710.88;5009963;28;20041;-72
2020/12/14 09:49:01;;;;;;;7.78;4.70;;;;;;;3.29;76.34;93704.00;5010056;28;20065;-72
2020/12/14 09:51:28;;;;;;;6.70;4.00;;;;;;;3.09;76.05;93707.50;5008941;28;20092;-72
2020/12/14 09:53:54;;;;;;;8.75;5.13;;;;;;;3.22;77.45;93706.94;5010128;28;20018;-72
2020/12/14 09:56:20;;;;;;;9.95;5.47;;;;;;;3.13;77.38;93703.28;5010015;28;20108;-72
2020/12/14 09:58:46;;;;;;;8.32;5.00;;;;;;;3.17;77.60;93706.94;5010332;28;20105;-72
2020/12/14 10:01:12;;;;;;;9.73;6.13;;;;;;;3.18;77.74;93700.63;5010398;28;20084;-72
2020/12/14 10:03:37;;;;;;;13.23;6.90;;;;;;;3.24;77.47;93704.81;5012944;28;20033;-72
2020/12/14 10:06:03;;;;;;;14.70;6.70;;;;;;;3.24;77.40;93704.00;5012493;28;20022;-72
2020/12/14 10:08:28;;;;;;;15.10;7.60;;;;;;;3.22;77.29;93704.31;5013727;28;20026;-72
2020/12/14 10:10:57;;;;;;;14.52;7.28;;;;;;;3.16;76.62;93710.66;5013856;28;20124;-72
2020/12/14 10:13:24;;;;;;;14.88;7.85;;;;;;;3.24;77.24;93699.56;5013605;28;20065;-72
2020/12/14 10:15:49;;;;;;;14.27;8.13;;;;;;;3.21;77.07;93703.50;5013554;28;20026;-72
2020/12/14 10:18:15;;;;;;;11.43;7.03;;;;;;;3.16;78.20;93693.00;5012246;28;20144;-72
2020/12/14 10:20:41;;;;;;;12.20;7.70;;;;;;;3.15;77.04;93698.53;5012352;28;20504;-72
2020/12/14 10:23:08;;;;;;;14.93;7.72;;;;;;;3.07;77.54;93701.72;5013429;28;20044;-72
2020/12/14 10:25:34;;;;;;;16.63;8.10;;;;;;;3.12;78.18;93699.88;5011771;28;20026;-72
2020/12/14 10:28:00;;;;;;;19.10;7.85;;;;;;;3.06;77.48;93706.22;5013302;28;20036;-72
2020/12/14 10:30:25;;;;;;;15.15;8.10;;;;;;;3.08;77.66;93700.69;5013245;28;20037;-72
2020/12/14 10:32:51;;;;;;;13.68;8.25;;;;;;;3.00;77.54;93700.16;5012278;28;20461;-71
2020/12/14 10:35:16;;;;;;;17.27;9.00;;;;;;;2.94;77.52;93708.34;5012146;28;20033;-71
2020/12/14 10:37:42;;;;;;;12.27;7.63;;;;;;;2.89;78.07;93714.44;5012187;28;20470;-71
2020/12/14 10:40:07;;;;;;;13.88;7.43;;;;;;;2.80;78.02;93700.25;5013153;28;20034;-71
2020/12/14 10:42:34;;;;;;;15.88;8.27;;;;;;;2.78;78.44;93707.63;5013048;28;20042;-72
2020/12/14 10:45:03;;;;;;;15.90;8.05;;;;;;;2.74;78.59;93706.56;5013086;28;20030;-72
2020/12/14 10:47:28;;;;;;;20.73;9.23;;;;;;;2.72;78.71;93703.41;5013044;28;20084;-71
2020/12/14 10:49:54;;;;;;;23.02;9.75;;;;;;;2.70;78.86;93711.56;5011869;28;20049;-72
2020/12/14 10:52:19;;;;;;;22.02;11.05;;;;;;;2.65;78.23;93700.28;5011884;28;20185;-72
2020/12/14 10:54:45;;;;;;;18.83;9.38;;;;;;;2.69;78.83;93693.44;5011705;28;20026;-72
2020/12/14 10:57:10;;;;;;;16.15;8.10;;;;;;;2.68;79.25;93686.59;5012873;28;20056;-72
2020/12/14 10:59:36;;;;;;;14.82;7.90;;;;;;;2.69;79.41;93694.22;5011323;28;20048;-72
2020/12/14 11:02:01;;;;;;;15.45;7.80;;;;;;;2.70;79.29;93702.91;5012985;28;20055;-72
2020/12/14 11:04:29;;;;;;;16.00;8.25;;;;;;;2.72;79.21;93698.16;5011361;28;20119;-71
2020/12/14 11:06:55;;;;;;;15.38;7.97;;;;;;;2.85;79.98;93696.78;5011410;28;20034;-72
2020/12/14 11:09:20;;;;;;;13.05;6.80;;;;;;;2.92;79.47;93702.56;5011508;28;20033;-72
2020/12/14 11:11:46;;;;;;;13.73;7.43;;;;;;;3.05;79.93;93709.09;5011348;28;20500;-71
2020/12/14 11:14:11;;;;;;;9.32;5.97;;;;;;;3.09;78.33;93707.50;5011443;28;20014;-72
2020/12/14 11:16:42;;;;;;;9.57;5.40;;;;;;;3.06;77.85;93702.78;5011338;28;20100;-72
2020/12/14 11:19:08;;;;;;;9.95;6.28;;;;;;;3.11;78.64;93710.66;5012781;28;20026;-72
2020/12/14 11:21:34;;;;;;;11.23;6.05;;;;;;;3.12;77.64;93702.50;5011405;28;20022;-72
2020/12/14 11:24:00;;;;;;;9.70;5.93;;;;;;;3.15;77.49;93707.22;5012354;28;20025;-72
2020/12/14 11:26:25;;;;;;;9.88;5.47;;;;;;;3.12;77.51;93697.22;5012413;28;20038;-72
2020/12/14 11:28:51;;;;;;;10.68;6.45;;;;;;;3.17;77.83;93701.69;5010714;28;20041;-72
2020/12/14 11:31:19;;;;;;;9.48;5.32;;;;;;;3.22;77.60;93701.66;5011564;28;20037;-72
2020/12/14 11:33:45;;;;;;;9.27;5.57;;;;;;;3.25;77.68;93698.47;5012424;28;20456;-72
2020/12/14 11:36:11;;;;;;;8.60;4.90;;;;;;;3.33;77.59;93705.03;5012233;28;20031;-72